createdAt,value
2023-06-18T00:00:51.037Z,15.60
2023-06-18T00:03:38.966Z,13.20
2023-06-18T00:06:06.688Z,16.00
2023-06-18T00:08:34.392Z,14.70
2023-06-18T00:11:02.203Z,14.00
2023-06-18T00:13:29.911Z,12.40
2023-06-18T00:15:57.604Z,16.60
2023-06-18T00:18:25.403Z,13.80
2023-06-18T00:20:53.063Z,14.20
2023-06-18T00:23:20.944Z,12.90
2023-06-18T00:25:48.672Z,16.90
2023-06-18T00:28:16.393Z,13.80
2023-06-18T00:30:44.135Z,13.70
2023-06-18T00:33:12.029Z,14.40
2023-06-18T00:35:40.365Z,12.30
2023-06-18T00:38:08.523Z,13.60
2023-06-18T00:40:36.183Z,15.40
2023-06-18T00:43:04.833Z,12.80
2023-06-18T00:45:33.672Z,13.80
2023-06-18T00:48:01.993Z,14.50
2023-06-18T00:50:33.505Z,18.30
2023-06-18T00:53:01.924Z,13.60
2023-06-18T00:55:29.880Z,16.70
2023-06-18T00:58:04.343Z,16.70
2023-06-18T01:00:35.614Z,15.90
2023-06-18T01:03:07.709Z,15.00
2023-06-18T01:05:36.075Z,13.60
2023-06-18T01:08:07.919Z,14.20
2023-06-18T01:10:40.564Z,15.70
2023-06-18T01:13:10.380Z,14.70
2023-06-18T01:15:39.692Z,12.40
2023-06-18T01:18:08.266Z,12.00
2023-06-18T01:20:42.083Z,12.70
2023-06-18T01:23:16.602Z,11.20
2023-06-18T01:25:44.987Z,11.10
2023-06-18T01:28:12.692Z,12.20
2023-06-18T01:30:40.992Z,12.10
2023-06-18T01:33:13.824Z,12.30
2023-06-18T01:35:42.346Z,13.10
2023-06-18T01:38:13.075Z,12.80
2023-06-18T01:41:08.329Z,12.50
2023-06-18T01:43:38.754Z,11.60
2023-06-18T01:46:08.728Z,11.60
2023-06-18T01:48:46.990Z,12.20
2023-06-18T01:51:17.136Z,13.30
2023-06-18T01:53:44.930Z,11.10
2023-06-18T01:56:14.666Z,10.60
2023-06-18T01:58:42.811Z,12.60
2023-06-18T02:01:12.588Z,12.80
2023-06-18T02:03:41.122Z,11.30
2023-06-18T02:06:09.028Z,13.00
2023-06-18T02:08:36.699Z,10.40
2023-06-18T02:11:04.544Z,11.10
2023-06-18T02:13:32.177Z,12.20
2023-06-18T02:15:59.848Z,11.00
2023-06-18T02:18:27.746Z,13.60
2023-06-18T02:20:55.719Z,9.90
2023-06-18T02:23:23.572Z,12.40
2023-06-18T02:25:52.135Z,13.20
2023-06-18T02:28:19.801Z,10.80
2023-06-18T02:30:47.522Z,10.90
2023-06-18T02:33:19.498Z,14.00
2023-06-18T02:35:47.207Z,12.20
2023-06-18T02:38:14.952Z,13.10
2023-06-18T02:40:42.822Z,11.40
2023-06-18T02:43:10.508Z,13.10
2023-06-18T02:45:38.633Z,12.80
2023-06-18T02:48:06.468Z,12.10
2023-06-18T02:50:34.146Z,14.40
2023-06-18T02:53:01.996Z,14.80
2023-06-18T02:55:32.830Z,14.30
2023-06-18T02:58:00.589Z,14.50
2023-06-18T03:00:28.229Z,14.10
2023-06-18T03:02:55.978Z,12.90
2023-06-18T03:05:23.966Z,12.50
2023-06-18T03:07:52.328Z,14.60
2023-06-18T03:10:20.215Z,13.30
2023-06-18T03:12:48.152Z,13.60
2023-06-18T03:15:15.895Z,13.00
2023-06-18T03:17:44.645Z,13.40
2023-06-18T03:20:13.038Z,13.90
2023-06-18T03:22:40.791Z,17.00
2023-06-18T03:25:09.866Z,12.30
2023-06-18T03:27:37.517Z,15.10
2023-06-18T03:30:05.604Z,12.70
2023-06-18T03:32:33.862Z,13.80
2023-06-18T03:35:01.626Z,13.80
2023-06-18T03:37:29.569Z,13.40
2023-06-18T03:39:58.206Z,12.80
2023-06-18T03:42:26.076Z,17.10
2023-06-18T03:44:53.725Z,14.70
2023-06-18T03:47:21.443Z,14.20
2023-06-18T03:49:49.160Z,14.40
2023-06-18T03:52:16.825Z,14.90
2023-06-18T03:54:44.497Z,13.40
2023-06-18T03:57:13.615Z,13.40
2023-06-18T03:59:41.298Z,12.90
2023-06-18T04:02:09.033Z,14.10
2023-06-18T04:04:36.766Z,13.40
2023-06-18T04:07:04.721Z,15.00
2023-06-18T04:09:32.404Z,16.30
2023-06-18T04:12:00.054Z,17.90
2023-06-18T04:14:28.405Z,14.90
2023-06-18T04:16:56.320Z,14.40
2023-06-18T04:19:24.053Z,14.80
2023-06-18T04:21:51.721Z,13.70
2023-06-18T04:24:19.399Z,14.10
2023-06-18T04:26:47.041Z,14.90
2023-06-18T04:29:17.107Z,16.00
2023-06-18T04:31:44.914Z,12.90
2023-06-18T04:34:12.915Z,13.50
2023-06-18T04:36:41.701Z,13.80
2023-06-18T04:39:09.434Z,12.00
2023-06-18T04:41:37.122Z,12.60
2023-06-18T04:44:05.020Z,13.90
2023-06-18T04:46:34.276Z,15.20
2023-06-18T04:49:01.969Z,17.10
2023-06-18T04:51:31.098Z,16.10
2023-06-18T04:53:58.916Z,19.60
2023-06-18T04:56:27.309Z,15.80
2023-06-18T04:58:54.953Z,14.80
2023-06-18T05:01:22.622Z,14.50
2023-06-18T05:03:50.473Z,14.50
2023-06-18T05:06:18.235Z,14.50
2023-06-18T05:08:47.976Z,15.80
2023-06-18T05:11:15.719Z,17.80
2023-06-18T05:13:43.438Z,15.40
2023-06-18T05:16:11.191Z,16.80
2023-06-18T05:18:39.821Z,12.30
2023-06-18T05:21:07.552Z,15.00
2023-06-18T05:23:35.274Z,14.60
2023-06-18T05:26:03.062Z,16.60
2023-06-18T05:28:30.776Z,16.20
2023-06-18T05:30:58.444Z,15.90
2023-06-18T05:33:26.166Z,17.40
2023-06-18T05:35:53.871Z,12.90
2023-06-18T05:38:21.528Z,15.40
2023-06-18T05:40:49.455Z,13.30
2023-06-18T05:43:17.119Z,14.90
2023-06-18T05:45:44.790Z,16.50
2023-06-18T05:48:12.752Z,13.70
2023-06-18T05:50:40.611Z,14.00
2023-06-18T05:53:08.733Z,16.80
2023-06-18T05:55:39.410Z,16.60
2023-06-18T05:58:08.233Z,14.30
2023-06-18T06:00:36.125Z,15.40
2023-06-18T06:03:04.062Z,16.10
2023-06-18T06:05:32.074Z,16.60
2023-06-18T06:07:59.872Z,14.70
2023-06-18T06:10:27.862Z,15.10
2023-06-18T06:12:55.907Z,13.30
2023-06-18T06:15:23.566Z,12.80
2023-06-18T06:17:51.381Z,11.70
2023-06-18T06:20:19.167Z,15.70
2023-06-18T06:22:46.901Z,12.50
2023-06-18T06:25:14.576Z,15.10
2023-06-18T06:27:44.179Z,13.70
2023-06-18T06:30:12.202Z,12.20
2023-06-18T06:32:40.183Z,12.10
2023-06-18T06:35:08.019Z,12.30
2023-06-18T06:37:35.744Z,11.40
2023-06-18T06:40:05.126Z,14.40
2023-06-18T06:42:32.802Z,14.30
2023-06-18T06:45:01.407Z,16.00
2023-06-18T06:47:29.126Z,14.00
2023-06-18T06:49:56.802Z,11.50
2023-06-18T06:52:24.477Z,14.20
2023-06-18T06:54:52.335Z,10.60
2023-06-18T06:57:20.067Z,12.30
2023-06-18T06:59:47.711Z,12.00
2023-06-18T07:02:15.390Z,13.30
2023-06-18T07:04:47.438Z,11.60
2023-06-18T07:07:15.757Z,9.10
2023-06-18T07:09:43.825Z,9.50
2023-06-18T07:12:12.836Z,9.40
2023-06-18T07:14:40.783Z,12.10
2023-06-18T07:17:08.459Z,12.10
2023-06-18T07:19:36.220Z,12.60
2023-06-18T07:22:04.482Z,11.40
2023-06-18T07:24:32.380Z,12.30
2023-06-18T07:27:00.438Z,12.00
2023-06-18T07:29:28.122Z,10.40
2023-06-18T07:31:56.010Z,13.60
2023-06-18T07:34:23.711Z,12.90
2023-06-18T07:36:51.415Z,10.30
2023-06-18T07:39:21.445Z,11.50
2023-06-18T07:41:51.026Z,16.10
2023-06-18T07:44:18.758Z,9.40
2023-06-18T07:46:46.589Z,9.80
2023-06-18T07:49:14.334Z,10.90
2023-06-18T07:51:41.968Z,9.80
2023-06-18T07:54:09.633Z,9.10
2023-06-18T07:56:37.412Z,10.50
2023-06-18T07:59:05.256Z,10.40
2023-06-18T08:01:33.418Z,9.50
2023-06-18T08:04:01.533Z,9.40
2023-06-18T08:06:29.360Z,9.50
2023-06-18T08:08:57.098Z,10.50
2023-06-18T08:11:25.322Z,9.00
2023-06-18T08:13:52.991Z,10.50
2023-06-18T08:16:23.545Z,10.40
2023-06-18T08:18:54.308Z,12.00
2023-06-18T08:21:23.203Z,11.10
2023-06-18T08:23:51.678Z,12.10
2023-06-18T08:26:20.495Z,11.60
2023-06-18T08:28:48.961Z,14.30
2023-06-18T08:31:16.702Z,12.90
2023-06-18T08:33:44.339Z,12.10
2023-06-18T08:36:12.255Z,13.40
2023-06-18T08:38:39.963Z,13.40
2023-06-18T08:41:08.945Z,14.50
2023-06-18T08:43:38.520Z,12.80
2023-06-18T08:46:16.873Z,12.60
2023-06-18T08:51:14.104Z,12.20
2023-06-18T08:53:46.009Z,11.20
2023-06-18T08:56:17.046Z,12.90
2023-06-18T08:58:50.129Z,11.30
2023-06-18T09:01:21.675Z,11.20
2023-06-18T09:03:49.783Z,12.90
2023-06-18T09:06:17.426Z,13.00
2023-06-18T09:08:45.298Z,11.40
2023-06-18T09:11:13.132Z,12.40
2023-06-18T09:13:42.734Z,11.70
2023-06-18T09:16:10.908Z,11.60
2023-06-18T09:18:38.709Z,12.60
2023-06-18T09:21:06.947Z,12.30
2023-06-18T09:23:34.862Z,10.70
2023-06-18T09:26:02.742Z,10.20
2023-06-18T09:28:30.447Z,11.70
2023-06-18T09:30:59.980Z,11.00
2023-06-18T09:33:33.050Z,11.40
2023-06-18T09:36:04.357Z,10.10
2023-06-18T09:38:35.857Z,13.70
2023-06-18T09:41:03.764Z,10.90
2023-06-18T09:43:36.089Z,9.70
2023-06-18T09:46:10.976Z,10.00
2023-06-18T09:48:43.178Z,11.00
2023-06-18T09:51:11.479Z,8.40
2023-06-18T09:53:39.190Z,12.20
2023-06-18T09:56:17.833Z,16.50
2023-06-18T09:58:48.669Z,8.40
2023-06-18T10:01:17.623Z,8.70
2023-06-18T10:03:46.086Z,9.40
2023-06-18T10:06:18.513Z,10.20
2023-06-18T10:08:48.031Z,13.40
2023-06-18T10:11:16.730Z,9.70
2023-06-18T10:13:50.644Z,9.50
2023-06-18T10:16:19.165Z,10.10
2023-06-18T10:18:59.254Z,8.10
2023-06-18T10:21:27.205Z,10.60
2023-06-18T10:24:09.030Z,9.70
2023-06-18T10:26:38.070Z,10.00
2023-06-18T10:29:06.517Z,8.70
2023-06-18T10:31:34.165Z,9.70
2023-06-18T10:34:01.905Z,9.20
2023-06-18T10:36:29.892Z,9.10
2023-06-18T10:38:58.224Z,9.20
2023-06-18T10:41:26.370Z,9.50
2023-06-18T10:43:54.825Z,8.30
2023-06-18T10:46:23.075Z,8.40
2023-06-18T10:49:21.260Z,8.40
2023-06-18T10:51:58.154Z,9.00
2023-06-18T10:54:30.558Z,6.70
2023-06-18T10:56:58.981Z,8.20
2023-06-18T10:59:46.719Z,8.50
2023-06-18T11:02:15.039Z,6.50
2023-06-18T11:04:42.889Z,4.90
2023-06-18T11:07:21.308Z,6.10
2023-06-18T11:12:28.697Z,9.00
2023-06-18T11:15:16.921Z,7.60
2023-06-18T11:17:50.436Z,7.70
2023-06-18T11:20:20.165Z,8.50
2023-06-18T11:22:48.358Z,9.20
2023-06-18T11:25:16.419Z,11.10
2023-06-18T11:27:46.088Z,9.60
2023-06-18T11:30:14.660Z,9.60
2023-06-18T11:32:42.645Z,8.70
2023-06-18T11:35:11.276Z,8.80
2023-06-18T11:37:39.876Z,7.50
2023-06-18T11:40:09.455Z,8.10
2023-06-18T11:42:38.898Z,8.20
2023-06-18T11:45:07.198Z,7.40
2023-06-18T11:47:35.977Z,7.30
2023-06-18T11:50:04.129Z,8.50
2023-06-18T11:52:31.949Z,6.70
2023-06-18T11:55:04.787Z,8.20
2023-06-18T11:57:32.931Z,8.90
2023-06-18T12:00:00.797Z,7.10
2023-06-18T12:02:29.027Z,9.20
2023-06-18T12:05:02.757Z,7.80
2023-06-18T12:07:31.063Z,8.70
2023-06-18T12:10:02.290Z,8.60
2023-06-18T12:12:36.146Z,7.60
2023-06-18T12:15:18.009Z,8.10
2023-06-18T12:17:59.442Z,7.80
2023-06-18T12:20:29.405Z,9.70
2023-06-18T12:22:58.570Z,7.60
2023-06-18T12:25:29.044Z,8.40
2023-06-18T12:27:57.927Z,8.40
2023-06-18T12:30:32.460Z,9.70
2023-06-18T12:33:10.782Z,7.90
2023-06-18T12:35:41.391Z,8.50
2023-06-18T12:38:09.969Z,7.40
2023-06-18T12:40:51.496Z,7.20
2023-06-18T12:43:20.310Z,6.90
2023-06-18T12:45:52.066Z,7.40
2023-06-18T12:48:22.474Z,6.90
2023-06-18T12:50:51.514Z,7.40
2023-06-18T12:53:24.210Z,6.70
2023-06-18T12:55:55.218Z,6.60
2023-06-18T12:58:27.828Z,7.40
2023-06-18T13:00:58.467Z,6.20
2023-06-18T13:03:27.786Z,6.30
2023-06-18T13:05:57.050Z,5.50
2023-06-18T13:08:24.750Z,5.50
2023-06-18T13:10:53.602Z,5.80
2023-06-18T13:13:21.338Z,5.10
2023-06-18T13:15:49.880Z,5.40
2023-06-18T13:18:19.126Z,5.70
2023-06-18T13:20:47.880Z,5.70
2023-06-18T13:23:16.563Z,5.10
2023-06-18T13:25:44.815Z,5.30
2023-06-18T13:28:12.754Z,7.20
2023-06-18T13:30:40.480Z,6.00
2023-06-18T13:33:09.018Z,4.10
2023-06-18T13:35:36.861Z,4.80
2023-06-18T13:38:04.625Z,4.90
2023-06-18T13:40:32.325Z,6.30
2023-06-18T13:43:00.121Z,5.30
2023-06-18T13:45:28.179Z,6.00
2023-06-18T13:47:56.257Z,5.00
2023-06-18T13:50:24.049Z,4.90
2023-06-18T13:52:51.750Z,6.00
2023-06-18T13:55:19.587Z,5.80
2023-06-18T13:57:47.289Z,6.70
2023-06-18T14:00:15.659Z,5.60
2023-06-18T14:02:43.484Z,5.30
2023-06-18T14:05:12.172Z,6.30
2023-06-18T14:07:40.263Z,6.10
2023-06-18T14:10:08.481Z,5.10
2023-06-18T14:12:36.505Z,5.30
2023-06-18T14:15:04.852Z,5.40
2023-06-18T14:17:32.595Z,5.30
2023-06-18T14:20:00.422Z,5.90
2023-06-18T14:22:28.242Z,6.20
2023-06-18T14:24:57.126Z,6.90
2023-06-18T14:27:24.933Z,7.70
2023-06-18T14:29:52.758Z,7.10
2023-06-18T14:32:23.758Z,5.70
2023-06-18T14:34:54.482Z,6.30
2023-06-18T14:37:23.278Z,6.10
2023-06-18T14:39:51.530Z,5.40
2023-06-18T14:42:19.442Z,5.70
2023-06-18T14:44:47.209Z,5.40
2023-06-18T14:47:14.887Z,5.60
2023-06-18T14:49:42.610Z,4.70
2023-06-18T14:52:10.378Z,5.00
2023-06-18T14:54:40.585Z,5.20
2023-06-18T14:57:08.336Z,4.30
2023-06-18T14:59:37.607Z,5.40
2023-06-18T15:02:16.158Z,4.40
2023-06-18T15:04:54.735Z,5.10
2023-06-18T15:07:22.456Z,4.80
2023-06-18T15:09:50.126Z,4.10
2023-06-18T15:12:17.826Z,5.10
2023-06-18T15:14:46.124Z,4.20
2023-06-18T15:17:14.433Z,4.00
2023-06-18T15:19:42.752Z,6.10
2023-06-18T15:22:10.499Z,5.30
2023-06-18T15:24:38.267Z,4.00
2023-06-18T15:27:06.655Z,4.70
2023-06-18T15:29:35.597Z,4.80
2023-06-18T15:32:03.490Z,5.40
2023-06-18T15:34:31.160Z,5.60
2023-06-18T15:36:58.835Z,4.60
2023-06-18T15:39:27.089Z,4.40
2023-06-18T15:41:54.864Z,4.20
2023-06-18T15:44:22.599Z,5.20
2023-06-18T15:46:50.374Z,4.90
2023-06-18T15:49:18.381Z,4.60
2023-06-18T15:51:46.126Z,5.30
2023-06-18T15:54:13.794Z,5.30
2023-06-18T15:56:43.682Z,5.40
2023-06-18T15:59:11.730Z,5.20
2023-06-18T16:01:39.581Z,5.70
2023-06-18T16:04:07.281Z,6.50
2023-06-18T16:06:34.942Z,6.20
2023-06-18T16:09:02.842Z,4.90
2023-06-18T16:11:30.755Z,4.90
2023-06-18T16:13:59.205Z,5.80
2023-06-18T16:16:30.413Z,4.80
2023-06-18T16:18:58.412Z,5.30
2023-06-18T16:21:28.865Z,4.50
2023-06-18T16:23:56.742Z,5.10
2023-06-18T16:26:26.411Z,5.40
2023-06-18T16:28:54.367Z,4.70
2023-06-18T16:31:22.388Z,4.00
2023-06-18T16:33:50.382Z,3.90
2023-06-18T16:36:18.391Z,4.10
2023-06-18T16:38:46.132Z,4.00
2023-06-18T16:41:14.062Z,4.00
2023-06-18T16:43:41.700Z,4.20
2023-06-18T16:46:10.399Z,4.10
2023-06-18T16:48:38.125Z,4.60
2023-06-18T16:51:05.838Z,3.50
2023-06-18T16:53:33.518Z,4.50
2023-06-18T16:56:01.218Z,4.10
2023-06-18T16:58:28.877Z,4.40
2023-06-18T17:00:57.322Z,3.90
2023-06-18T17:03:25.092Z,4.30
2023-06-18T17:05:54.871Z,4.00
2023-06-18T17:08:23.474Z,4.40
2023-06-18T17:10:51.733Z,4.10
2023-06-18T17:13:19.476Z,4.40
2023-06-18T17:15:49.057Z,4.50
2023-06-18T17:18:18.312Z,5.00
2023-06-18T17:20:45.976Z,6.70
2023-06-18T17:23:13.623Z,4.30
2023-06-18T17:25:41.621Z,3.90
2023-06-18T17:28:10.370Z,4.70
2023-06-18T17:30:38.146Z,4.00
2023-06-18T17:33:06.490Z,6.80
2023-06-18T17:35:34.387Z,4.60
2023-06-18T17:38:02.010Z,4.20
2023-06-18T17:40:29.922Z,4.50
2023-06-18T17:42:57.600Z,6.10
2023-06-18T17:45:26.454Z,4.60
2023-06-18T17:47:54.579Z,5.00
2023-06-18T17:50:22.242Z,4.90
2023-06-18T17:52:50.117Z,4.40
2023-06-18T17:55:18.038Z,4.40
2023-06-18T17:57:45.877Z,4.30
2023-06-18T18:00:14.837Z,4.40
2023-06-18T18:02:42.695Z,4.40
2023-06-18T18:05:10.568Z,4.60
2023-06-18T18:07:38.231Z,6.20
2023-06-18T18:10:06.644Z,9.80
2023-06-18T18:12:34.325Z,7.20
2023-06-18T18:15:02.047Z,7.50
2023-06-18T18:17:29.715Z,6.80
2023-06-18T18:19:57.931Z,5.80
2023-06-18T18:22:25.713Z,4.80
2023-06-18T18:24:53.408Z,7.00
2023-06-18T18:27:21.189Z,5.80
2023-06-18T18:29:48.905Z,7.00
2023-06-18T18:32:17.144Z,7.60
2023-06-18T18:34:44.916Z,5.40
2023-06-18T18:37:13.139Z,7.00
2023-06-18T18:39:42.567Z,6.40
2023-06-18T18:42:10.656Z,7.90
2023-06-18T18:44:40.203Z,6.30
2023-06-18T18:47:08.535Z,7.40
2023-06-18T18:49:36.350Z,7.60
2023-06-18T18:52:04.469Z,10.00
2023-06-18T18:54:32.835Z,11.50
2023-06-18T18:57:00.578Z,12.10
2023-06-18T18:59:28.255Z,9.10
2023-06-18T19:01:56.094Z,11.40
2023-06-18T19:04:23.768Z,9.30
2023-06-18T19:06:51.430Z,9.20
2023-06-18T19:09:20.197Z,10.80
2023-06-18T19:11:47.872Z,12.50
2023-06-18T19:14:15.533Z,8.60
2023-06-18T19:16:43.476Z,8.10
2023-06-18T19:19:11.343Z,10.60
2023-06-18T19:21:39.041Z,8.10
2023-06-18T19:24:06.933Z,9.60
2023-06-18T19:26:34.657Z,9.60
2023-06-18T19:29:03.827Z,10.80
2023-06-18T19:31:31.565Z,13.00
2023-06-18T19:33:59.330Z,14.10
2023-06-18T19:36:26.973Z,11.60
2023-06-18T19:38:54.810Z,12.50
2023-06-18T19:41:22.562Z,15.10
2023-06-18T19:43:50.210Z,15.60
2023-06-18T19:46:18.101Z,14.10
2023-06-18T19:48:45.979Z,13.90
2023-06-18T19:51:16.844Z,15.40
2023-06-18T19:53:45.357Z,14.20
2023-06-18T19:56:14.132Z,14.10
2023-06-18T19:58:41.850Z,13.60
2023-06-18T20:01:09.661Z,12.30
2023-06-18T20:03:38.765Z,10.50
2023-06-18T20:06:06.630Z,11.40
2023-06-18T20:08:34.485Z,10.30
2023-06-18T20:11:02.409Z,9.30
2023-06-18T20:13:30.113Z,9.90
2023-06-18T20:15:58.105Z,8.60
2023-06-18T20:18:25.764Z,8.70
2023-06-18T20:20:55.510Z,10.60
2023-06-18T20:23:23.423Z,11.20
2023-06-18T20:25:51.117Z,10.20
2023-06-18T20:28:18.866Z,8.80
2023-06-18T20:30:46.549Z,8.40
2023-06-18T20:33:14.573Z,7.50
2023-06-18T20:35:42.259Z,9.00
2023-06-18T20:38:10.187Z,7.90
2023-06-18T20:40:38.331Z,8.80
2023-06-18T20:43:06.048Z,8.40
2023-06-18T20:45:33.763Z,11.90
2023-06-18T20:48:01.628Z,9.90
2023-06-18T20:50:29.627Z,10.20
2023-06-18T20:52:57.278Z,8.10
2023-06-18T20:55:24.939Z,7.50
2023-06-18T20:57:52.763Z,9.00
2023-06-18T21:00:20.665Z,9.20
2023-06-18T21:02:48.922Z,7.20
2023-06-18T21:05:16.992Z,8.30
2023-06-18T21:07:44.736Z,9.50
2023-06-18T21:10:12.554Z,10.10
2023-06-18T21:12:40.220Z,17.00
2023-06-18T21:15:08.662Z,23.70
2023-06-18T21:17:36.344Z,21.10
2023-06-18T21:20:04.392Z,15.30
2023-06-18T21:22:32.091Z,15.20
2023-06-18T21:24:59.764Z,12.70
2023-06-18T21:27:27.400Z,11.40
2023-06-18T21:29:55.117Z,10.60
2023-06-18T21:32:22.816Z,9.90
2023-06-18T21:34:50.478Z,9.30
2023-06-18T21:37:18.191Z,8.60
2023-06-18T21:39:47.753Z,10.30
2023-06-18T21:42:17.045Z,10.30
2023-06-18T21:44:44.752Z,13.30
2023-06-18T21:47:12.434Z,14.00
2023-06-18T21:49:40.161Z,12.30
2023-06-18T21:52:08.324Z,11.90
2023-06-18T21:54:35.979Z,12.80
2023-06-18T21:57:03.868Z,11.50
2023-06-18T21:59:31.622Z,9.90
2023-06-18T22:01:59.325Z,10.00
2023-06-18T22:04:27.011Z,10.70
2023-06-18T22:06:54.904Z,11.20
2023-06-18T22:09:24.315Z,10.70
2023-06-18T22:11:52.318Z,9.70
2023-06-18T22:14:20.092Z,10.40
2023-06-18T22:16:48.646Z,11.20
2023-06-18T22:19:16.577Z,10.60
2023-06-18T22:21:44.287Z,11.10
2023-06-18T22:24:12.759Z,10.50
2023-06-18T22:26:43.046Z,9.50
2023-06-18T22:29:10.720Z,9.90
2023-06-18T22:31:38.486Z,10.70
2023-06-18T22:34:06.144Z,9.00
2023-06-18T22:36:33.826Z,11.10
2023-06-18T22:39:01.556Z,9.90
2023-06-18T22:41:29.355Z,9.90
2023-06-18T22:43:57.018Z,10.90
2023-06-18T22:46:24.808Z,13.80
2023-06-18T22:48:52.537Z,14.40
2023-06-18T22:51:20.234Z,15.80
2023-06-18T22:53:47.874Z,12.90
2023-06-18T22:56:15.495Z,17.60
2023-06-18T22:58:43.209Z,15.10
2023-06-18T23:01:10.932Z,13.50
2023-06-18T23:03:38.813Z,13.10
2023-06-18T23:06:06.598Z,12.60
2023-06-18T23:08:34.277Z,12.50
2023-06-18T23:11:02.050Z,11.80
2023-06-18T23:13:29.752Z,11.40
2023-06-18T23:15:57.411Z,12.00
2023-06-18T23:18:27.594Z,13.90
2023-06-18T23:20:55.733Z,10.30
2023-06-18T23:23:23.445Z,10.50
2023-06-18T23:25:51.060Z,10.50
2023-06-18T23:28:18.793Z,9.70
2023-06-18T23:30:47.540Z,10.40
2023-06-18T23:33:15.293Z,11.80
2023-06-18T23:35:44.502Z,10.40
2023-06-18T23:38:12.662Z,12.00
2023-06-18T23:40:40.498Z,10.20
2023-06-18T23:43:08.195Z,9.80
2023-06-18T23:45:35.887Z,14.30
2023-06-18T23:48:03.997Z,10.20
2023-06-18T23:50:31.860Z,11.50
2023-06-18T23:52:59.540Z,11.50
2023-06-18T23:55:27.184Z,11.30
2023-06-18T23:57:55.087Z,12.00
